Terminal Aerodrome Forecast
Issued by NWS

Home | Current Version | Previous Version | Text Only | Print | Product List | Glossary On
Versions: 1 2 3 4 5 6 7 8 9 10 11 12 13 14 15 16 17 18
000
FTUS41 KGYX 050840 AAA
TAFLEB
TAF AMD
KLEB 050840Z 0509/0606 32007KT P6SM OVC050
     FM051400 33009G16KT P6SM SKC
     FM052300 00000KT P6SM SKC=

USA.gov is the U.S. government's official web portal to all federal, state and local government web resources and services.